createdAt,value
2019-01-19T10:58:37.880Z,6.80
2019-01-19T11:01:08.979Z,7.30
2019-01-19T11:04:01.782Z,7.50
2019-01-19T11:06:31.870Z,7.40
2019-01-19T11:09:01.896Z,4.40
2019-01-19T11:11:33.517Z,4.40
2019-01-19T11:21:29.585Z,5.80
2019-01-19T11:24:01.133Z,6.20
2019-01-19T11:26:31.219Z,5.60
2019-01-19T11:29:01.206Z,6.30
2019-01-19T11:31:31.202Z,7.80
2019-01-19T11:34:02.840Z,7.90
2019-01-19T11:36:40.669Z,6.00
2019-01-19T11:39:48.001Z,6.00
2019-01-19T11:45:26.109Z,7.10
2019-01-19T11:47:56.263Z,6.50
2019-01-19T11:50:26.384Z,7.40
2019-01-19T11:52:56.587Z,7.30
2019-01-19T11:55:26.809Z,6.70
2019-01-19T12:13:18.795Z,7.40
2019-01-19T12:15:48.773Z,7.70
2019-01-19T12:18:18.760Z,7.00
2019-01-19T12:20:48.983Z,6.60
2019-01-19T12:23:19.052Z,5.70
2019-01-19T12:25:48.964Z,6.30
2019-01-19T12:28:18.943Z,7.00
2019-01-19T12:30:48.971Z,7.50
2019-01-19T12:33:19.047Z,6.70
2019-01-19T12:35:49.044Z,6.80
2019-01-19T12:38:18.955Z,6.90
2019-01-19T12:40:48.935Z,7.00
2019-01-19T12:43:18.843Z,7.30
2019-01-19T12:45:51.614Z,6.60
2019-01-19T12:48:21.775Z,7.10
2019-01-19T12:50:51.822Z,6.60
2019-01-19T12:53:21.841Z,7.00
2019-01-19T12:55:51.824Z,6.90
2019-01-19T12:58:22.031Z,6.80
2019-01-19T13:00:52.118Z,6.50
2019-01-19T13:03:22.039Z,5.60
2019-01-19T13:06:06.262Z,5.80
2019-01-19T13:08:36.178Z,5.80
2019-01-19T13:11:11.662Z,4.80
2019-01-19T13:13:44.380Z,3.50
2019-01-19T13:16:36.774Z,4.00
2019-01-19T13:19:24.693Z,3.70
2019-01-19T13:22:40.260Z,3.80
2019-01-19T13:25:18.860Z,3.90
2019-01-19T13:28:11.450Z,3.30
2019-01-19T13:31:19.398Z,3.20
2019-01-19T13:33:57.960Z,2.90
2019-01-19T13:36:30.876Z,2.80
2019-01-19T13:39:12.638Z,2.90
2019-01-19T13:42:01.950Z,3.30
2019-01-19T13:44:34.946Z,3.00
2019-01-19T13:47:24.341Z,3.10
2019-01-19T13:50:15.257Z,2.60
2019-01-19T13:53:28.256Z,2.90
2019-01-19T13:56:23.542Z,2.90
2019-01-19T13:59:19.819Z,2.60
2019-01-19T14:02:25.637Z,2.50
2019-01-19T14:05:04.097Z,2.40
2019-01-19T14:07:42.787Z,2.00
2019-01-19T14:10:21.379Z,2.30
2019-01-19T14:13:10.651Z,2.10
2019-01-19T14:15:46.170Z,2.30
2019-01-19T14:18:36.888Z,2.10
2019-01-19T14:21:12.998Z,2.30
2019-01-19T14:23:49.092Z,2.60
2019-01-19T14:26:47.114Z,2.30
2019-01-19T14:29:37.970Z,2.10
2019-01-19T14:32:16.675Z,1.90
2019-01-19T14:35:07.591Z,1.90
2019-01-19T14:37:52.516Z,1.90
2019-01-19T14:40:40.312Z,1.80
2019-01-19T14:43:30.959Z,1.40
2019-01-19T14:46:09.568Z,1.60
2019-01-19T14:49:00.522Z,1.70
2019-01-19T14:51:42.043Z,1.60
2019-01-19T14:54:37.457Z,1.50
2019-01-19T14:57:22.377Z,1.30
2019-01-19T15:00:07.030Z,1.30
2019-01-19T15:03:02.627Z,1.50
2019-01-19T15:05:38.694Z,1.30
2019-01-19T15:08:33.374Z,1.20
2019-01-19T15:11:25.919Z,1.20
2019-01-19T15:14:05.699Z,1.00
2019-01-19T15:16:44.442Z,0.90
2019-01-19T15:19:35.152Z,1.00
2019-01-19T15:22:19.339Z,0.90
2019-01-19T15:24:52.259Z,0.90
2019-01-19T15:27:41.294Z,0.80
2019-01-19T15:30:39.084Z,0.90
2019-01-19T15:33:20.966Z,0.70
2019-01-19T15:35:59.404Z,0.60
2019-01-19T15:38:38.183Z,0.60
2019-01-19T15:41:25.223Z,0.50
2019-01-19T15:44:15.651Z,0.50
2019-01-19T15:47:15.374Z,0.30
2019-01-19T15:49:57.208Z,0.30
2019-01-19T15:52:30.134Z,0.30
2019-01-19T15:55:21.242Z,0.30
2019-01-19T15:58:18.510Z,0.30
2019-01-19T16:01:21.021Z,0.30
2019-01-19T16:04:18.126Z,0.20
2019-01-19T16:06:51.751Z,0.10
2019-01-19T16:09:55.087Z,-0.10
2019-01-19T16:12:33.935Z,0.00
2019-01-19T16:15:24.721Z,0.10
2019-01-19T16:18:06.471Z,0.10
2019-01-19T16:21:02.925Z,0.10
2019-01-19T16:23:44.813Z,0.00
2019-01-19T16:26:35.826Z,-0.20
2019-01-19T16:29:20.770Z,-0.30
2019-01-19T16:35:14.304Z,-0.40
2019-01-19T16:37:53.102Z,-0.50
2019-01-19T16:40:48.395Z,-0.50
2019-01-19T16:43:49.514Z,-0.60
2019-01-19T16:46:44.919Z,-0.70
2019-01-19T16:49:37.309Z,-0.70
2019-01-19T16:52:10.247Z,-0.70
2019-01-19T16:54:43.356Z,-0.90
2019-01-19T16:57:31.610Z,-0.90
2019-01-19T17:00:24.152Z,-0.90
2019-01-19T17:03:19.731Z,-1.00
2019-01-19T17:05:58.566Z,-1.00
2019-01-19T17:08:52.997Z,-1.00
2019-01-19T17:11:40.898Z,-1.00
2019-01-19T17:14:22.771Z,-1.10
2019-01-19T17:16:55.687Z,-1.10
2019-01-19T17:19:50.928Z,-1.10
2019-01-19T17:22:26.524Z,-1.10
2019-01-19T17:25:33.483Z,-1.30
2019-01-19T17:28:08.797Z,-1.40
2019-01-19T17:30:44.879Z,-1.40
2019-01-19T17:33:18.631Z,-1.30
2019-01-19T17:36:10.048Z,-1.30
2019-01-19T17:39:10.675Z,-1.40
2019-01-19T17:41:48.011Z,-1.40
2019-01-19T17:44:26.951Z,-1.60
2019-01-19T17:47:16.729Z,-1.60
2019-01-19T17:49:55.403Z,-1.60
2019-01-19T17:52:43.244Z,-1.60
2019-01-19T17:55:19.230Z,-1.70
2019-01-19T17:58:07.063Z,-1.60
2019-01-19T18:00:59.162Z,-1.70
2019-01-19T18:03:52.891Z,-1.70
2019-01-19T18:06:56.847Z,-1.60
2019-01-19T18:09:38.319Z,-1.80
2019-01-19T18:12:14.059Z,-1.70
2019-01-19T18:14:52.637Z,-1.80
2019-01-19T18:17:43.331Z,-1.80
2019-01-19T18:20:41.795Z,-1.90
2019-01-19T18:23:42.470Z,-1.90
2019-01-19T18:26:33.612Z,-1.90
2019-01-19T18:29:41.831Z,-1.80
2019-01-19T18:32:38.583Z,-1.90
2019-01-19T18:35:11.545Z,-2.00
2019-01-19T18:37:53.075Z,-1.90
2019-01-19T18:40:47.058Z,-2.00
2019-01-19T18:43:40.681Z,-2.00
2019-01-19T18:46:19.308Z,-2.10
2019-01-19T18:49:10.040Z,-2.00
2019-01-19T18:52:00.738Z,-2.00
2019-01-19T18:54:59.162Z,-1.90
2019-01-19T18:57:56.002Z,-1.80
2019-01-19T19:00:43.837Z,-1.90
2019-01-19T19:03:34.826Z,-2.00
2019-01-19T19:06:31.967Z,-2.00
2019-01-19T19:09:24.305Z,-1.90
2019-01-19T19:12:02.959Z,-2.00
2019-01-19T19:14:41.751Z,-2.10
2019-01-19T19:17:32.890Z,-2.20
2019-01-19T19:20:20.351Z,-2.20
2019-01-19T19:22:55.771Z,-2.10
2019-01-19T19:26:02.639Z,-2.10
2019-01-19T19:28:38.307Z,-2.20
2019-01-19T19:31:11.219Z,-2.20
2019-01-19T19:36:49.223Z,-2.30
2019-01-19T19:39:39.964Z,-2.30
2019-01-19T19:42:32.503Z,-2.40
2019-01-19T19:45:14.468Z,-2.30
2019-01-19T19:48:20.630Z,-2.30
2019-01-19T19:51:02.680Z,-2.30
2019-01-19T19:53:34.405Z,-2.30
2019-01-19T19:56:03.283Z,-2.40
2019-01-19T19:58:33.240Z,-2.40
2019-01-19T20:01:03.451Z,-2.50
2019-01-19T20:03:33.498Z,-2.40
2019-01-19T20:06:03.593Z,-2.30
2019-01-19T20:08:34.815Z,-2.30
2019-01-19T20:11:05.029Z,-2.40
2019-01-19T20:13:35.228Z,-2.40
2019-01-19T20:16:05.369Z,-2.30
2019-01-19T20:18:35.393Z,-2.40
2019-01-19T20:21:05.391Z,-2.40
2019-01-19T20:23:35.402Z,-2.60
2019-01-19T20:26:05.558Z,-2.70
2019-01-19T20:28:35.567Z,-2.80
2019-01-19T20:31:05.611Z,-2.80
2019-01-19T20:33:36.919Z,-2.70
2019-01-19T20:36:07.028Z,-2.50
2019-01-19T20:38:36.957Z,-2.60
2019-01-19T20:41:06.976Z,-2.60
2019-01-19T20:43:37.006Z,-2.70
2019-01-19T20:46:07.237Z,-2.70
2019-01-19T20:48:37.664Z,-2.70
2019-01-19T20:51:07.704Z,-2.70
2019-01-19T20:53:37.805Z,-2.80
2019-01-19T20:56:08.008Z,-2.60
2019-01-19T20:58:38.238Z,-2.60
2019-01-19T21:01:08.240Z,-2.60
2019-01-19T21:03:38.273Z,-2.60
2019-01-19T21:06:08.372Z,-2.50
2019-01-19T21:08:38.371Z,-2.50
2019-01-19T21:11:08.306Z,-2.60
2019-01-19T21:13:38.344Z,-2.60
2019-01-19T21:16:08.599Z,-2.60
2019-01-19T21:18:38.607Z,-2.70
2019-01-19T21:21:08.538Z,-2.70
2019-01-19T21:23:38.647Z,-2.70
2019-01-19T21:26:08.848Z,-2.70
2019-01-19T21:28:38.944Z,-2.80
2019-01-19T21:31:08.879Z,-2.90
2019-01-19T21:33:38.892Z,-2.90
2019-01-19T21:36:09.031Z,-2.80
2019-01-19T21:38:39.034Z,-2.80
2019-01-19T21:41:09.137Z,-2.80
2019-01-19T21:43:39.155Z,-2.70
2019-01-19T21:46:09.183Z,-2.70
2019-01-19T21:48:39.182Z,-2.70
2019-01-19T21:51:09.132Z,-2.70
2019-01-19T21:53:39.240Z,-2.70
2019-01-19T21:56:09.271Z,-2.60
2019-01-19T21:58:39.287Z,-2.60
2019-01-19T22:01:09.327Z,-2.60
2019-01-19T22:03:39.359Z,-2.60
2019-01-19T22:06:09.919Z,-2.70
2019-01-19T22:08:40.023Z,-2.70
2019-01-19T22:11:41.632Z,-2.60
2019-01-19T22:14:11.678Z,-2.70
2019-01-19T22:16:41.701Z,-2.70
2019-01-19T22:19:11.859Z,-2.80
2019-01-19T22:21:41.963Z,-2.70
2019-01-19T22:24:11.971Z,-2.70
2019-01-19T22:26:43.373Z,-2.80
2019-01-19T22:29:13.395Z,-2.70
2019-01-19T22:31:43.543Z,-2.80
2019-01-19T22:34:13.639Z,-2.80
2019-01-19T22:36:43.577Z,-2.80
2019-01-19T22:39:13.579Z,-2.90
2019-01-19T22:41:43.522Z,-2.80
2019-01-19T22:44:13.626Z,-2.80
2019-01-19T22:46:43.644Z,-2.80
2019-01-19T22:49:13.743Z,-2.70
2019-01-19T22:51:43.877Z,-2.70
2019-01-19T22:54:13.874Z,-2.70
2019-01-19T22:56:43.810Z,-2.70
2019-01-19T22:59:13.838Z,-2.70
2019-01-19T23:01:45.038Z,-2.70
2019-01-19T23:04:15.133Z,-2.70
2019-01-19T23:06:45.269Z,-2.70
2019-01-19T23:09:16.323Z,-2.70
2019-01-19T23:11:46.255Z,-2.70
2019-01-19T23:14:16.360Z,-2.70
2019-01-19T23:16:46.394Z,-2.80
2019-01-19T23:19:16.483Z,-2.60
2019-01-19T23:21:46.563Z,-2.60
2019-01-19T23:24:21.312Z,-2.70
2019-01-19T23:26:55.838Z,-2.60
2019-01-19T23:29:26.171Z,-2.70
2019-01-19T23:31:56.243Z,-2.60
2019-01-19T23:34:26.247Z,-2.50
2019-01-19T23:36:56.246Z,-2.50
2019-01-19T23:39:26.199Z,-2.60
2019-01-19T23:41:56.299Z,-2.60
2019-01-19T23:44:26.304Z,-2.50
2019-01-19T23:46:56.237Z,-2.60
2019-01-19T23:49:26.451Z,-2.60
2019-01-19T23:51:56.382Z,-2.60
2019-01-19T23:54:26.379Z,-2.40
2019-01-19T23:56:56.315Z,-2.30
2019-01-19T23:59:27.180Z,-2.50
